Time;durP1;ratioP1;P1;durP2;ratioP2;P2;SDS_P1;SDS_P2;PMS_P1;PMS_P2;Temp;Humidity;BMP_temperature;BMP_pressure;BME280_temperature;BME280_humidity;BME280_pressure;Samples;Min_cycle;Max_cycle;Signal;HPM_P1;HPM_P2
2022/06/26 00:01:26;;;;;;;1.92;1.70;;;21.20;90.50;;;;;;5026275;28;20521;-76
2022/06/26 00:03:52;;;;;;;2.60;1.50;;;21.20;90.60;;;;;;5032864;28;20021;-78
2022/06/26 00:06:18;;;;;;;2.03;1.48;;;21.20;90.60;;;;;;5033108;28;20107;-78
2022/06/26 00:08:43;;;;;;;2.28;1.00;;;21.20;90.60;;;;;;5034566;28;20037;-77
2022/06/26 00:11:09;;;;;;;2.42;1.00;;;21.20;90.70;;;;;;5026014;28;20084;-77
2022/06/26 00:13:34;;;;;;;2.72;1.73;;;21.20;90.90;;;;;;5029139;28;20033;-77
2022/06/26 00:16:00;;;;;;;1.77;1.10;;;21.20;91.00;;;;;;5029541;28;20509;-76
2022/06/26 00:18:26;;;;;;;3.45;1.55;;;21.10;91.00;;;;;;5036730;28;20489;-78
2022/06/26 00:20:51;;;;;;;2.97;1.90;;;21.20;91.20;;;;;;5032039;28;20025;-79
2022/06/26 00:23:17;;;;;;;4.32;2.00;;;21.10;92.00;;;;;;5031980;28;20147;-78
2022/06/26 00:25:43;;;;;;;2.80;1.80;;;21.00;93.10;;;;;;5029744;28;20052;-76
2022/06/26 00:28:08;;;;;;;1.95;1.50;;;20.90;93.50;;;;;;5027905;28;20414;-77
2022/06/26 00:30:34;;;;;;;2.70;1.50;;;20.70;93.70;;;;;;5028118;28;20033;-77
2022/06/26 00:33:00;;;;;;;2.70;1.50;;;20.70;93.80;;;;;;5023319;28;20406;-77
2022/06/26 00:35:26;;;;;;;2.90;1.23;;;20.70;93.90;;;;;;5024750;28;20061;-77
2022/06/26 00:37:51;;;;;;;2.05;1.17;;;20.60;94.00;;;;;;5030895;28;20025;-77
2022/06/26 00:40:17;;;;;;;1.50;1.00;;;20.50;94.10;;;;;;5054676;28;20507;-77
2022/06/26 00:42:43;;;;;;;1.75;1.20;;;20.50;94.20;;;;;;5024986;28;20445;-77
2022/06/26 00:45:09;;;;;;;2.45;1.08;;;20.40;94.60;;;;;;5029103;28;20018;-77
2022/06/26 00:47:35;;;;;;;1.83;1.10;;;20.40;94.50;;;;;;5029399;28;20425;-77
2022/06/26 00:50:02;;;;;;;2.80;1.05;;;20.40;94.50;;;;;;5021157;28;20021;-76
2022/06/26 00:52:28;;;;;;;2.88;1.17;;;20.40;94.60;;;;;;5022648;28;20037;-76
2022/06/26 00:54:55;;;;;;;2.13;1.13;;;20.40;94.70;;;;;;5024823;28;20052;-76
2022/06/26 00:57:21;;;;;;;2.60;1.20;;;20.40;94.70;;;;;;5027530;28;20033;-77
2022/06/26 00:59:50;;;;;;;1.25;1.00;;;20.40;94.80;;;;;;5023250;28;20052;-77
2022/06/26 01:02:16;;;;;;;1.63;0.98;;;20.40;94.80;;;;;;5025774;28;20021;-77
2022/06/26 01:04:42;;;;;;;1.35;1.20;;;20.40;95.00;;;;;;5030867;28;20954;-76
2022/06/26 01:07:10;;;;;;;5.15;1.23;;;20.40;95.00;;;;;;5027254;28;20029;-77
2022/06/26 01:09:35;;;;;;;3.08;1.23;;;20.40;95.20;;;;;;5023002;28;20134;-77
2022/06/26 01:12:01;;;;;;;1.90;1.25;;;20.40;95.30;;;;;;5027503;28;20108;-77
2022/06/26 01:14:28;;;;;;;1.65;1.15;;;20.40;95.40;;;;;;5025026;28;20080;-75
2022/06/26 01:16:54;;;;;;;1.33;1.17;;;20.40;95.40;;;;;;5024345;28;20060;-77
2022/06/26 01:19:20;;;;;;;2.28;1.10;;;20.50;95.60;;;;;;5022583;28;20021;-77
2022/06/26 01:21:46;;;;;;;2.10;1.30;;;20.40;95.60;;;;;;5022528;28;20386;-77
2022/06/26 01:24:13;;;;;;;1.60;1.00;;;20.50;95.80;;;;;;5022075;28;20029;-77
2022/06/26 01:26:40;;;;;;;2.00;1.20;;;20.50;95.80;;;;;;5027328;28;20037;-78
2022/06/26 01:29:06;;;;;;;3.45;1.33;;;20.50;95.90;;;;;;5027171;28;20032;-77
2022/06/26 01:31:35;;;;;;;1.98;1.20;;;20.50;96.00;;;;;;5027744;28;20121;-76
2022/06/26 01:34:06;;;;;;;4.78;1.50;;;20.50;96.00;;;;;;5023099;28;20040;-76
2022/06/26 01:36:32;;;;;;;2.65;1.58;;;20.50;96.00;;;;;;5026234;28;20029;-77
2022/06/26 01:38:58;;;;;;;2.03;1.58;;;20.60;96.10;;;;;;5055825;28;20056;-77
2022/06/26 01:41:25;;;;;;;3.65;1.90;;;20.50;96.10;;;;;;5051341;22;20064;-75
2022/06/26 01:43:51;;;;;;;1.48;1.30;;;20.50;96.20;;;;;;5048249;28;20025;-75
2022/06/26 01:46:17;;;;;;;2.58;1.20;;;20.50;96.20;;;;;;5054406;28;20035;-75
2022/06/26 01:48:43;;;;;;;1.77;1.20;;;20.50;96.40;;;;;;5052170;28;20033;-75
2022/06/26 01:51:09;;;;;;;1.73;1.17;;;20.60;96.50;;;;;;5049585;28;20090;-74
2022/06/26 01:53:35;;;;;;;2.67;1.35;;;20.50;96.80;;;;;;5051013;28;20035;-75
2022/06/26 01:56:03;;;;;;;1.90;1.20;;;20.60;97.00;;;;;;5051290;28;20041;-75
2022/06/26 01:58:28;;;;;;;2.67;1.58;;;20.50;97.10;;;;;;5052975;28;20044;-74
2022/06/26 02:00:54;;;;;;;1.90;1.67;;;20.50;97.20;;;;;;5055271;28;20021;-75
2022/06/26 02:03:21;;;;;;;3.30;1.63;;;20.50;97.30;;;;;;5042624;28;20481;-75
2022/06/26 02:05:47;;;;;;;2.00;1.27;;;20.50;97.30;;;;;;5049502;28;20141;-74
2022/06/26 02:08:13;;;;;;;3.17;1.45;;;20.50;97.50;;;;;;5045465;28;20448;-75
2022/06/26 02:13:36;;;;;;;4.10;1.50;;;20.50;97.70;;;;;;5048068;28;20091;-75
2022/06/26 02:16:07;;;;;;;2.58;1.58;;;20.40;97.90;;;;;;5046638;28;20077;-75
2022/06/26 02:18:33;;;;;;;2.88;1.65;;;20.40;98.10;;;;;;5043291;28;20052;-75
2022/06/26 02:20:59;;;;;;;1.52;1.33;;;20.30;98.50;;;;;;5049190;28;20086;-75
2022/06/26 02:23:25;;;;;;;2.13;1.65;;;20.30;98.70;;;;;;5044914;28;20074;-75
2022/06/26 02:25:51;;;;;;;3.30;1.40;;;20.30;98.90;;;;;;5056871;28;20428;-75
2022/06/26 02:28:17;;;;;;;2.45;1.50;;;20.20;99.00;;;;;;5045523;28;20057;-75
2022/06/26 02:30:44;;;;;;;1.40;1.30;;;20.20;99.10;;;;;;5052529;28;20401;-75
2022/06/26 02:33:10;;;;;;;1.65;1.20;;;20.20;99.30;;;;;;5047300;28;20031;-75
2022/06/26 02:35:36;;;;;;;2.92;1.55;;;20.20;99.40;;;;;;5052276;28;20041;-75
2022/06/26 02:38:01;;;;;;;5.30;1.40;;;20.20;99.50;;;;;;5063519;28;20083;-75
2022/06/26 02:40:29;;;;;;;2.97;1.58;;;20.20;99.60;;;;;;5052160;28;20102;-75
2022/06/26 02:42:55;;;;;;;3.15;1.50;;;20.20;99.80;;;;;;5045519;28;20059;-75
2022/06/26 02:45:21;;;;;;;3.25;1.38;;;20.20;99.90;;;;;;5050759;28;20033;-75
2022/06/26 02:47:48;;;;;;;2.60;1.55;;;20.20;99.90;;;;;;5047224;28;20044;-75
2022/06/26 02:50:15;;;;;;;3.72;1.30;;;20.10;99.90;;;;;;5048754;28;20061;-75
2022/06/26 02:52:41;;;;;;;2.08;1.58;;;20.10;99.90;;;;;;5043441;28;20033;-75
2022/06/26 02:55:08;;;;;;;2.47;1.50;;;20.10;99.90;;;;;;5045471;28;20037;-75
2022/06/26 02:57:33;;;;;;;2.22;1.52;;;20.10;99.90;;;;;;5046184;28;20038;-74
2022/06/26 02:59:59;;;;;;;3.25;1.50;;;20.00;99.90;;;;;;5049525;28;20551;-73
2022/06/26 03:02:25;;;;;;;3.20;1.40;;;20.00;99.90;;;;;;5050709;28;20037;-73
2022/06/26 03:04:53;;;;;;;4.82;1.70;;;20.00;99.90;;;;;;5047243;28;20033;-74
2022/06/26 03:07:19;;;;;;;1.85;1.52;;;20.00;99.90;;;;;;5046327;28;20020;-74
2022/06/26 03:09:45;;;;;;;2.72;1.42;;;20.00;99.90;;;;;;5045922;28;20027;-74
2022/06/26 03:12:11;;;;;;;2.30;1.52;;;20.00;99.90;;;;;;5051800;28;20393;-73
2022/06/26 03:14:36;;;;;;;5.28;1.60;;;20.00;99.90;;;;;;5047091;28;20852;-75
2022/06/26 03:17:02;;;;;;;2.55;1.60;;;20.00;99.90;;;;;;5051198;28;20124;-75
2022/06/26 03:19:28;;;;;;;2.47;1.83;;;20.00;99.90;;;;;;5047060;28;20083;-74
2022/06/26 03:21:54;;;;;;;3.30;1.70;;;20.00;99.90;;;;;;5043432;28;20028;-74
2022/06/26 03:24:20;;;;;;;2.58;1.67;;;19.90;99.90;;;;;;5045265;28;20029;-74
2022/06/26 03:26:46;;;;;;;2.22;1.60;;;19.90;99.90;;;;;;5048172;28;20021;-75
2022/06/26 03:29:13;;;;;;;2.45;1.55;;;19.80;99.90;;;;;;5048262;28;20529;-74
2022/06/26 03:31:39;;;;;;;2.15;1.60;;;19.90;99.90;;;;;;5044705;28;20036;-74
2022/06/26 03:34:05;;;;;;;3.63;1.73;;;19.80;99.90;;;;;;5051019;28;20025;-74
2022/06/26 03:36:32;;;;;;;2.95;1.55;;;19.80;99.90;;;;;;5047125;28;23038;-75
2022/06/26 03:38:58;;;;;;;3.75;1.83;;;19.80;99.90;;;;;;5050247;28;20017;-75
2022/06/26 03:41:25;;;;;;;2.22;1.40;;;19.80;99.90;;;;;;5047571;28;20558;-75
2022/06/26 03:43:50;;;;;;;2.83;1.45;;;19.70;99.90;;;;;;5065129;28;20090;-75
2022/06/26 03:46:16;;;;;;;3.60;1.60;;;19.70;99.90;;;;;;5049048;28;20459;-74
2022/06/26 03:48:42;;;;;;;2.38;1.83;;;19.70;99.90;;;;;;5048625;28;20126;-75
2022/06/26 03:51:08;;;;;;;2.63;1.73;;;19.70;99.90;;;;;;5053672;28;20032;-75
2022/06/26 03:53:37;;;;;;;3.55;1.92;;;19.70;99.90;;;;;;5042990;28;20095;-75
2022/06/26 03:56:04;;;;;;;2.97;1.75;;;19.70;99.90;;;;;;5038396;28;20024;-75
2022/06/26 03:58:30;;;;;;;2.10;1.42;;;19.70;99.90;;;;;;5050062;28;20120;-75
2022/06/26 04:00:56;;;;;;;2.35;1.75;;;19.70;99.90;;;;;;5045889;28;20073;-74
2022/06/26 04:03:22;;;;;;;3.47;1.58;;;19.70;99.90;;;;;;5044178;28;20045;-74
2022/06/26 04:05:49;;;;;;;3.17;1.58;;;19.70;99.90;;;;;;5048934;28;20057;-74
2022/06/26 04:08:16;;;;;;;2.42;1.50;;;19.70;99.90;;;;;;5045784;28;20106;-75
2022/06/26 04:10:42;;;;;;;4.10;1.50;;;19.70;99.90;;;;;;5046290;28;20033;-74
2022/06/26 04:13:09;;;;;;;1.63;1.52;;;19.70;99.90;;;;;;5047687;28;20455;-75
2022/06/26 04:15:37;;;;;;;1.85;1.38;;;19.70;99.90;;;;;;5047676;28;20389;-75
2022/06/26 04:18:03;;;;;;;3.33;1.35;;;19.70;99.90;;;;;;5044335;28;20035;-75
2022/06/26 04:20:30;;;;;;;3.00;1.50;;;19.80;99.90;;;;;;5041959;28;20393;-73
2022/06/26 04:22:55;;;;;;;2.75;1.70;;;19.80;99.90;;;;;;5045691;28;20074;-72
2022/06/26 04:25:21;;;;;;;2.60;1.85;;;19.80;99.90;;;;;;5044683;28;20104;-72
2022/06/26 04:27:46;;;;;;;2.72;1.77;;;19.80;99.90;;;;;;5043765;28;20038;-72
2022/06/26 04:30:12;;;;;;;1.77;1.42;;;19.80;99.90;;;;;;5052600;28;20024;-73
2022/06/26 04:32:38;;;;;;;1.98;1.70;;;19.80;99.90;;;;;;5048869;28;20032;-73
2022/06/26 04:35:04;;;;;;;1.85;1.60;;;19.90;99.90;;;;;;5047744;28;20037;-72
2022/06/26 04:37:29;;;;;;;2.63;1.77;;;19.90;99.90;;;;;;5052605;28;20035;-73
2022/06/26 04:39:55;;;;;;;3.22;1.50;;;19.90;99.90;;;;;;5046756;28;20069;-72
2022/06/26 04:42:21;;;;;;;4.38;1.75;;;19.90;99.90;;;;;;5045113;28;20028;-72
2022/06/26 04:44:46;;;;;;;2.30;1.58;;;20.00;99.90;;;;;;5040365;28;20544;-72
2022/06/26 04:47:12;;;;;;;3.17;1.70;;;20.00;99.90;;;;;;5046875;28;20405;-72
2022/06/26 04:49:37;;;;;;;2.08;1.45;;;20.00;99.90;;;;;;5048099;28;20059;-71
2022/06/26 04:52:04;;;;;;;3.20;1.40;;;20.00;99.90;;;;;;5054191;28;20115;-73
2022/06/26 04:54:29;;;;;;;3.20;1.52;;;20.00;99.90;;;;;;5051099;28;20025;-73
2022/06/26 04:56:55;;;;;;;6.80;1.58;;;20.10;99.90;;;;;;5052555;28;20029;-73
2022/06/26 04:59:20;;;;;;;2.90;1.77;;;20.10;99.90;;;;;;5053428;28;20024;-74
2022/06/26 05:01:46;;;;;;;3.20;1.33;;;20.10;99.90;;;;;;5048790;28;20068;-72
2022/06/26 05:04:12;;;;;;;3.00;1.50;;;20.10;99.90;;;;;;5055723;28;20028;-74
2022/06/26 05:06:37;;;;;;;2.35;1.38;;;20.20;99.90;;;;;;5052719;28;20033;-73
2022/06/26 05:09:03;;;;;;;2.28;1.48;;;20.20;99.90;;;;;;5051353;28;20474;-74
2022/06/26 05:11:29;;;;;;;2.67;1.40;;;20.20;99.90;;;;;;5051535;28;20111;-74
2022/06/26 05:13:54;;;;;;;6.35;1.75;;;20.30;99.90;;;;;;5052283;28;20032;-73
2022/06/26 05:16:20;;;;;;;2.47;1.35;;;20.30;99.90;;;;;;5051845;28;20039;-73
2022/06/26 05:18:45;;;;;;;2.95;1.52;;;20.30;99.90;;;;;;5046588;28;20070;-73
2022/06/26 05:21:13;;;;;;;2.88;1.55;;;20.40;99.90;;;;;;5046862;28;20507;-73
2022/06/26 05:23:39;;;;;;;1.95;1.42;;;20.40;99.90;;;;;;5051437;28;20189;-72
2022/06/26 05:26:05;;;;;;;1.92;1.45;;;20.40;99.90;;;;;;5048135;28;20104;-73
2022/06/26 05:28:31;;;;;;;3.67;1.48;;;20.50;99.90;;;;;;5049228;28;20100;-74
2022/06/26 05:30:56;;;;;;;2.03;1.13;;;20.50;99.90;;;;;;5052971;28;20170;-73
2022/06/26 05:33:22;;;;;;;1.58;1.23;;;20.50;99.90;;;;;;5048457;28;20512;-73
2022/06/26 05:35:48;;;;;;;1.95;1.60;;;20.50;99.90;;;;;;5046502;28;20029;-72
2022/06/26 05:38:13;;;;;;;1.63;1.38;;;20.50;99.90;;;;;;5052571;28;20033;-73
2022/06/26 05:40:39;;;;;;;3.17;1.88;;;20.50;99.90;;;;;;5046144;28;20022;-73
2022/06/26 05:43:05;;;;;;;3.95;1.55;;;20.50;99.90;;;;;;5052386;28;20484;-73
2022/06/26 05:45:30;;;;;;;1.98;1.77;;;20.60;99.90;;;;;;5051679;28;20028;-73
2022/06/26 05:47:56;;;;;;;1.60;1.27;;;20.50;99.90;;;;;;5041122;28;20517;-74
2022/06/26 05:50:23;;;;;;;1.88;1.40;;;20.60;99.90;;;;;;5047475;28;20571;-73
2022/06/26 05:52:49;;;;;;;3.25;1.58;;;20.60;99.90;;;;;;5046279;28;20413;-72
2022/06/26 05:55:14;;;;;;;2.00;1.58;;;20.60;99.90;;;;;;5049421;28;20036;-73
2022/06/26 05:57:40;;;;;;;2.40;1.50;;;20.80;99.90;;;;;;5049411;28;20115;-73
2022/06/26 06:00:07;;;;;;;3.40;1.35;;;21.00;99.90;;;;;;5049649;28;20032;-73
2022/06/26 06:02:33;;;;;;;2.03;1.40;;;21.30;99.90;;;;;;5050076;28;20052;-73
2022/06/26 06:04:59;;;;;;;3.97;1.58;;;21.60;99.90;;;;;;5051794;28;20029;-73
2022/06/26 06:07:25;;;;;;;1.80;1.55;;;21.90;99.90;;;;;;5045411;28;20043;-73
2022/06/26 06:09:50;;;;;;;2.78;1.52;;;22.10;99.90;;;;;;5051720;28;20458;-73
2022/06/26 06:12:16;;;;;;;2.55;1.52;;;22.40;99.90;;;;;;5045087;28;20094;-72
2022/06/26 06:14:42;;;;;;;2.38;1.48;;;22.60;99.90;;;;;;5041209;28;20040;-74
2022/06/26 06:20:20;;;;;;;1.55;1.27;;;22.90;99.90;;;;;;5004219;28;20037;-72
2022/06/26 06:22:49;;;;;;;4.38;1.33;;;22.90;99.90;;;;;;5018362;28;20157;-69
2022/06/26 06:25:15;;;;;;;2.50;1.45;;;23.10;99.90;;;;;;5018359;28;20037;-70
2022/06/26 06:27:41;;;;;;;2.08;1.27;;;22.90;99.30;;;;;;5049475;28;20025;-69
2022/06/26 06:30:08;;;;;;;1.95;1.10;;;22.90;99.50;;;;;;5044115;28;20025;-69
2022/06/26 06:32:34;;;;;;;2.85;1.40;;;23.00;99.30;;;;;;5049066;28;20017;-69
2022/06/26 06:35:00;;;;;;;1.13;1.00;;;23.20;99.10;;;;;;5048685;28;20077;-73
2022/06/26 06:37:26;;;;;;;2.25;1.42;;;23.30;98.60;;;;;;5045709;28;20041;-74
2022/06/26 06:39:52;;;;;;;1.63;1.13;;;23.50;98.20;;;;;;5045070;28;20028;-74
2022/06/26 06:42:18;;;;;;;1.20;0.80;;;23.70;97.60;;;;;;5044179;28;20032;-74
2022/06/26 06:44:44;;;;;;;2.13;1.10;;;23.80;96.90;;;;;;5046195;28;20032;-74
2022/06/26 06:47:12;;;;;;;1.88;1.10;;;23.80;96.60;;;;;;5057160;28;20501;-74
2022/06/26 06:49:38;;;;;;;2.10;1.30;;;23.60;96.40;;;;;;5044541;28;20744;-74
2022/06/26 06:52:05;;;;;;;1.70;1.05;;;23.70;96.60;;;;;;5049061;28;20048;-74
2022/06/26 06:54:31;;;;;;;1.05;0.90;;;23.70;96.80;;;;;;5046074;28;20414;-74
2022/06/26 06:56:57;;;;;;;0.80;0.75;;;23.70;96.20;;;;;;5042593;28;20105;-74
2022/06/26 06:59:23;;;;;;;1.25;1.15;;;23.80;95.90;;;;;;5045094;28;20142;-74
2022/06/26 07:01:49;;;;;;;1.63;0.95;;;23.90;95.70;;;;;;5047431;28;20475;-74
2022/06/26 07:04:15;;;;;;;2.42;1.40;;;23.90;95.20;;;;;;5048180;28;20029;-74
2022/06/26 07:06:41;;;;;;;1.10;0.70;;;23.90;95.00;;;;;;5045021;28;20029;-71
2022/06/26 07:09:06;;;;;;;2.03;0.85;;;23.90;94.90;;;;;;5043734;28;20032;-76
2022/06/26 07:11:32;;;;;;;4.30;1.05;;;23.90;95.00;;;;;;5046530;28;20035;-73
2022/06/26 07:13:58;;;;;;;1.00;0.90;;;23.90;95.00;;;;;;5050815;28;20108;-70
2022/06/26 07:16:24;;;;;;;2.10;1.00;;;23.90;94.80;;;;;;5052198;28;20043;-74
2022/06/26 07:18:50;;;;;;;1.25;1.02;;;23.90;94.60;;;;;;5052099;28;20485;-72
2022/06/26 07:21:15;;;;;;;4.03;1.27;;;23.90;94.90;;;;;;5056607;28;20571;-72
2022/06/26 07:23:41;;;;;;;1.10;1.00;;;23.90;95.10;;;;;;5045666;28;20424;-74
2022/06/26 07:26:07;;;;;;;4.32;1.40;;;23.90;95.30;;;;;;5054000;28;20155;-74
2022/06/26 07:28:33;;;;;;;2.45;0.80;;;23.90;95.40;;;;;;5046450;28;20036;-76
2022/06/26 07:30:59;;;;;;;1.02;0.95;;;23.90;95.30;;;;;;5052730;28;20028;-73
2022/06/26 07:36:09;;;;;;;;;;;23.90;95.10;;;;;;5054535;28;20036;-74
2022/06/26 07:38:35;;;;;;;1.60;0.93;;;23.90;94.60;;;;;;5050989;28;19912;-74
2022/06/26 07:41:01;;;;;;;1.20;1.10;;;23.80;94.60;;;;;;5048215;28;20029;-74
2022/06/26 07:43:27;;;;;;;1.80;0.90;;;23.70;94.80;;;;;;5049889;28;20083;-74
2022/06/26 07:45:53;;;;;;;1.08;0.90;;;23.70;94.60;;;;;;5053028;28;20041;-74
2022/06/26 07:48:18;;;;;;;1.55;0.90;;;23.60;94.30;;;;;;5045752;28;20036;-73
2022/06/26 07:50:44;;;;;;;1.42;1.00;;;23.60;94.40;;;;;;5048284;28;20527;-71
2022/06/26 07:53:10;;;;;;;3.25;1.25;;;23.70;94.30;;;;;;5047147;28;20035;-72
2022/06/26 07:55:35;;;;;;;0.98;0.93;;;23.70;94.30;;;;;;5044609;28;20486;-72
2022/06/26 07:58:01;;;;;;;0.80;0.80;;;23.80;94.20;;;;;;5048386;28;20032;-72
2022/06/26 08:00:27;;;;;;;2.33;1.10;;;23.80;93.80;;;;;;5047224;28;20112;-73
2022/06/26 08:02:53;;;;;;;1.35;0.80;;;23.70;93.70;;;;;;5048815;28;20045;-73
2022/06/26 08:05:19;;;;;;;2.20;0.90;;;23.80;93.60;;;;;;5048712;28;20374;-74
2022/06/26 08:07:45;;;;;;;2.33;1.00;;;23.70;93.80;;;;;;5051302;28;20025;-73
2022/06/26 08:10:11;;;;;;;2.65;1.10;;;23.90;94.00;;;;;;5053644;28;20029;-74
2022/06/26 08:12:37;;;;;;;2.50;0.80;;;23.90;93.70;;;;;;5054444;28;20048;-75
2022/06/26 08:15:04;;;;;;;1.00;0.80;;;23.80;93.50;;;;;;5049828;28;20025;-74
2022/06/26 08:17:30;;;;;;;1.25;1.00;;;23.90;93.30;;;;;;5051212;28;20021;-74
2022/06/26 08:19:56;;;;;;;1.83;0.90;;;23.90;93.10;;;;;;5054731;28;20036;-75
2022/06/26 08:22:21;;;;;;;1.20;1.10;;;24.00;93.30;;;;;;5048589;28;20025;-75
2022/06/26 08:24:49;;;;;;;1.98;0.93;;;24.10;93.10;;;;;;5049733;28;20029;-73
2022/06/26 08:27:15;;;;;;;1.20;1.10;;;24.20;93.10;;;;;;5050123;28;20025;-73
2022/06/26 08:29:40;;;;;;;2.35;1.25;;;24.30;92.90;;;;;;5068403;28;20071;-74
2022/06/26 08:32:07;;;;;;;1.23;1.13;;;24.40;92.60;;;;;;5048160;28;20025;-74
2022/06/26 08:34:32;;;;;;;1.10;0.98;;;24.40;93.30;;;;;;5052036;28;20060;-74
2022/06/26 08:36:58;;;;;;;1.35;1.00;;;24.40;93.50;;;;;;5051865;28;20064;-74
2022/06/26 08:39:24;;;;;;;1.25;1.00;;;24.40;92.50;;;;;;5051661;28;20042;-75
2022/06/26 08:41:53;;;;;;;1.58;1.40;;;24.50;92.40;;;;;;5071679;28;20060;-75
2022/06/26 08:44:19;;;;;;;1.15;1.02;;;24.40;92.90;;;;;;5052595;28;20024;-75
2022/06/26 08:46:46;;;;;;;1.88;1.25;;;24.50;93.10;;;;;;5056764;28;20037;-75
2022/06/26 08:49:18;;;;;;;2.42;1.40;;;24.40;93.10;;;;;;5044137;28;20032;-75
2022/06/26 08:51:46;;;;;;;1.83;1.30;;;24.50;93.40;;;;;;5057971;28;20394;-75
2022/06/26 08:54:13;;;;;;;2.65;1.33;;;24.50;93.40;;;;;;5048124;28;20434;-74
2022/06/26 08:56:42;;;;;;;1.70;1.20;;;24.60;92.80;;;;;;5051626;28;20052;-75
2022/06/26 08:59:08;;;;;;;1.63;1.30;;;24.70;91.90;;;;;;5050423;28;20108;-74
2022/06/26 09:01:36;;;;;;;1.85;1.20;;;24.60;91.60;;;;;;4999623;28;20111;-75
2022/06/26 09:04:02;;;;;;;1.17;1.00;;;24.70;91.90;;;;;;5050725;28;20021;-75
2022/06/26 09:06:27;;;;;;;3.25;1.25;;;24.80;92.00;;;;;;5045162;28;20037;-75
2022/06/26 09:08:53;;;;;;;2.20;0.95;;;24.80;92.00;;;;;;5044446;28;20029;-74
2022/06/26 09:11:19;;;;;;;1.17;1.05;;;24.80;92.10;;;;;;5042569;28;20043;-74
2022/06/26 09:13:46;;;;;;;1.80;1.20;;;24.90;91.90;;;;;;5049234;28;20111;-75
2022/06/26 09:16:13;;;;;;;1.48;1.05;;;24.80;91.40;;;;;;5053398;28;20061;-75
2022/06/26 09:18:41;;;;;;;2.88;1.40;;;24.80;91.50;;;;;;5050774;28;20049;-75
2022/06/26 09:21:08;;;;;;;1.20;1.00;;;24.90;91.60;;;;;;5044902;28;20024;-75
2022/06/26 09:23:37;;;;;;;1.38;1.10;;;24.90;91.40;;;;;;5048112;28;20143;-76
2022/06/26 09:26:04;;;;;;;2.03;1.10;;;25.00;91.30;;;;;;5049518;28;20025;-75
2022/06/26 09:28:30;;;;;;;1.58;1.35;;;25.00;91.10;;;;;;5049626;28;20040;-75
2022/06/26 09:31:04;;;;;;;3.47;1.13;;;24.90;91.00;;;;;;5048372;28;20075;-75
2022/06/26 09:33:33;;;;;;;1.55;1.00;;;25.00;91.10;;;;;;5050209;28;20120;-75
2022/06/26 09:36:01;;;;;;;8.15;0.90;;;25.00;91.10;;;;;;5052392;28;20036;-75
2022/06/26 09:38:30;;;;;;;3.20;1.20;;;24.90;90.90;;;;;;5045584;28;20548;-75
2022/06/26 09:41:07;;;;;;;2.05;0.95;;;24.90;90.90;;;;;;5067113;28;20021;-75
2022/06/26 09:43:38;;;;;;;2.00;1.20;;;24.90;91.00;;;;;;5047955;28;20036;-73
2022/06/26 09:46:10;;;;;;;1.02;0.93;;;24.90;90.80;;;;;;5054175;28;20069;-75
2022/06/26 09:48:37;;;;;;;3.55;1.05;;;25.00;90.50;;;;;;5050810;28;20029;-74
2022/06/26 09:51:04;;;;;;;1.88;1.00;;;25.10;90.60;;;;;;5048946;28;20021;-75
2022/06/26 09:53:30;;;;;;;1.20;1.02;;;25.20;90.40;;;;;;5054466;28;20397;-75
2022/06/26 09:55:58;;;;;;;2.85;1.33;;;25.30;90.20;;;;;;5051396;28;20029;-74
2022/06/26 09:58:25;;;;;;;1.27;1.08;;;25.30;89.70;;;;;;5054318;28;20025;-74
2022/06/26 10:06:27;;;;;;;1.45;0.98;;;25.30;88.60;;;;;;5050807;28;20118;-74
2022/06/26 10:09:05;;;;;;;1.08;0.98;;;25.30;88.60;;;;;;5047411;28;20627;-74
2022/06/26 10:11:33;;;;;;;1.02;0.90;;;25.40;89.10;;;;;;5055748;28;20474;-74
2022/06/26 10:14:05;;;;;;;3.42;1.20;;;25.30;88.50;;;;;;5050045;28;20032;-76
2022/06/26 10:16:31;;;;;;;3.90;1.15;;;25.50;88.20;;;;;;5051361;28;20033;-76
2022/06/26 10:19:05;;;;;;;1.52;0.80;;;25.50;87.90;;;;;;5052987;28;20025;-76
2022/06/26 10:21:38;;;;;;;2.40;1.27;;;25.50;87.00;;;;;;5054543;28;20021;-76
2022/06/26 10:24:05;;;;;;;1.30;1.13;;;25.60;87.20;;;;;;5048736;28;20112;-75
2022/06/26 10:26:31;;;;;;;2.05;1.10;;;25.60;86.90;;;;;;5048786;28;20033;-75
2022/06/26 10:28:58;;;;;;;1.67;1.10;;;25.50;87.10;;;;;;5046402;28;20396;-76
2022/06/26 10:31:24;;;;;;;1.85;1.00;;;25.50;87.10;;;;;;5049061;28;20062;-75
2022/06/26 10:33:50;;;;;;;1.35;1.25;;;25.50;86.70;;;;;;5041712;28;20060;-76
2022/06/26 10:36:24;;;;;;;1.15;0.93;;;25.50;87.10;;;;;;5050979;28;20112;-76
2022/06/26 10:38:50;;;;;;;1.13;1.00;;;25.50;86.70;;;;;;5046565;28;20082;-76
2022/06/26 10:44:13;;;;;;;1.63;1.02;;;25.50;86.30;;;;;;5050394;28;20040;-75
2022/06/26 10:46:47;;;;;;;4.07;1.42;;;25.60;86.30;;;;;;5048220;28;20098;-76
2022/06/26 10:49:13;;;;;;;1.25;0.98;;;25.80;85.90;;;;;;5053822;28;20029;-75
2022/06/26 10:51:41;;;;;;;1.13;1.00;;;25.80;84.70;;;;;;5050133;28;20367;-74
2022/06/26 10:54:21;;;;;;;0.98;0.90;;;25.80;84.70;;;;;;5055450;28;20078;-76
2022/06/26 10:57:00;;;;;;;1.33;1.10;;;26.00;84.50;;;;;;5054318;28;20560;-76
2022/06/26 10:59:26;;;;;;;2.95;1.50;;;26.10;83.20;;;;;;5057530;28;20060;-75
2022/06/26 11:01:52;;;;;;;1.42;0.90;;;26.20;82.90;;;;;;5046223;28;20044;-76
2022/06/26 11:04:17;;;;;;;1.13;0.80;;;26.30;82.40;;;;;;5051532;28;20485;-75
2022/06/26 11:06:43;;;;;;;0.80;0.70;;;26.40;82.10;;;;;;5018262;28;20489;-76
2022/06/26 11:09:09;;;;;;;1.70;1.20;;;26.40;81.10;;;;;;5009567;28;20510;-76
2022/06/26 11:11:36;;;;;;;3.05;1.35;;;26.50;81.40;;;;;;5024788;28;20030;-76
2022/06/26 11:14:08;;;;;;;1.00;0.80;;;26.50;81.60;;;;;;5020248;28;20117;-75
2022/06/26 11:16:43;;;;;;;3.03;1.48;;;26.50;82.10;;;;;;5021999;28;20510;-76
2022/06/26 11:19:25;;;;;;;2.42;1.17;;;26.50;81.60;;;;;;5036555;28;20030;-75
2022/06/26 11:22:02;;;;;;;1.10;1.00;;;26.30;82.90;;;;;;5031185;28;20026;-76
2022/06/26 11:24:28;;;;;;;1.13;1.02;;;26.40;83.20;;;;;;5022811;28;20064;-76
2022/06/26 11:26:54;;;;;;;1.40;1.20;;;26.40;83.80;;;;;;5026635;28;20057;-76
2022/06/26 11:29:20;;;;;;;2.05;0.90;;;26.40;84.70;;;;;;5021456;28;20029;-76
2022/06/26 11:31:50;;;;;;;1.10;1.00;;;26.40;84.10;;;;;;5021970;28;20029;-76
2022/06/26 11:34:16;;;;;;;1.38;1.20;;;26.40;83.90;;;;;;5024966;28;20056;-76
2022/06/26 11:36:54;;;;;;;2.03;1.17;;;26.40;84.00;;;;;;5021754;28;20034;-75
2022/06/26 11:39:20;;;;;;;7.05;3.72;;;26.50;84.50;;;;;;5041818;28;20064;-75
2022/06/26 11:41:46;;;;;;;13.32;1.70;;;26.40;84.20;;;;;;5022782;28;20562;-75
2022/06/26 11:44:13;;;;;;;2.13;1.40;;;26.40;84.20;;;;;;5021209;28;20083;-74
2022/06/26 11:46:40;;;;;;;2.22;1.30;;;26.40;84.20;;;;;;5021806;28;20065;-72
2022/06/26 11:49:09;;;;;;;3.25;2.20;;;26.40;84.00;;;;;;5022792;28;21184;-74
2022/06/26 11:51:35;;;;;;;4.35;2.05;;;26.30;83.80;;;;;;5020808;28;20057;-75
2022/06/26 11:54:01;;;;;;;1.80;1.50;;;26.20;83.50;;;;;;5020710;28;20048;-75
2022/06/26 11:56:28;;;;;;;1.42;1.20;;;26.10;83.60;;;;;;5024860;28;20026;-75
2022/06/26 11:58:56;;;;;;;2.15;1.17;;;26.00;83.90;;;;;;5021579;28;20496;-74
2022/06/26 12:01:31;;;;;;;1.23;1.13;;;26.00;84.40;;;;;;5024254;28;20087;-74
2022/06/26 12:03:57;;;;;;;2.35;1.10;;;26.00;84.50;;;;;;5032907;28;20096;-74
2022/06/26 12:06:29;;;;;;;1.27;0.90;;;26.00;83.80;;;;;;5022388;28;20038;-74
2022/06/26 12:08:56;;;;;;;2.03;1.10;;;26.10;83.80;;;;;;5025322;28;20100;-74
2022/06/26 12:11:23;;;;;;;1.55;1.00;;;26.00;83.80;;;;;;5021367;28;20364;-74
2022/06/26 12:13:48;;;;;;;1.83;1.35;;;26.10;84.00;;;;;;5022813;28;20943;-74
2022/06/26 12:16:14;;;;;;;1.30;1.20;;;26.10;83.60;;;;;;5025340;28;20022;-73
2022/06/26 12:18:41;;;;;;;1.45;1.35;;;26.20;83.50;;;;;;5024041;28;20049;-73
2022/06/26 12:21:21;;;;;;;5.28;3.08;;;26.10;83.10;;;;;;5019700;28;20030;-74
2022/06/26 12:23:51;;;;;;;1.08;0.98;;;26.10;83.70;;;;;;5022964;28;20026;-73
2022/06/26 12:26:19;;;;;;;1.10;1.00;;;26.10;83.20;;;;;;5026397;28;20490;-75
2022/06/26 12:28:48;;;;;;;1.33;0.90;;;26.10;83.50;;;;;;5024572;28;20116;-75
2022/06/26 12:31:14;;;;;;;1.05;0.90;;;26.20;83.30;;;;;;5023935;28;20045;-74
2022/06/26 12:33:40;;;;;;;2.53;1.00;;;26.10;83.00;;;;;;5021550;28;20026;-74
2022/06/26 12:36:06;;;;;;;1.20;0.95;;;26.00;83.10;;;;;;5022509;28;20029;-74
2022/06/26 12:38:36;;;;;;;1.17;0.98;;;26.00;83.30;;;;;;5020893;28;20025;-74
2022/06/26 12:41:04;;;;;;;1.45;1.17;;;26.00;83.50;;;;;;5028869;28;20067;-73
2022/06/26 12:43:30;;;;;;;1.23;1.10;;;26.00;83.50;;;;;;5020343;28;20033;-73
2022/06/26 12:45:56;;;;;;;1.50;1.00;;;26.10;84.00;;;;;;5021274;28;20096;-74
2022/06/26 12:48:22;;;;;;;1.30;1.20;;;26.20;83.30;;;;;;5021480;28;20056;-73
2022/06/26 12:50:48;;;;;;;1.88;1.10;;;26.30;82.90;;;;;;5022505;28;20038;-74
2022/06/26 12:53:13;;;;;;;1.17;0.95;;;26.30;82.70;;;;;;5026568;28;20028;-74
2022/06/26 12:55:41;;;;;;;1.30;1.05;;;26.40;83.00;;;;;;5021353;28;20080;-75
2022/06/26 12:58:06;;;;;;;1.33;1.13;;;26.40;83.00;;;;;;5023626;28;20545;-75
2022/06/26 13:00:32;;;;;;;1.95;1.30;;;26.30;82.80;;;;;;5027612;28;20108;-76
2022/06/26 13:02:58;;;;;;;1.50;1.10;;;26.30;83.10;;;;;;5021411;28;20022;-75